Time;durP1;ratioP1;P1;durP2;ratioP2;P2;SDS_P1;SDS_P2;PMS_P1;PMS_P2;Temp;Humidity;BMP_temperature;BMP_pressure;BME280_temperature;BME280_humidity;BME280_pressure;Samples;Min_cycle;Max_cycle;Signal;HPM_P1;HPM_P2
2022/12/30 00:02:16;;;;;;;41.10;21.17;;;-0.30;99.90;;;;;;6278455;23;20058;-80
2022/12/30 00:04:49;;;;;;;35.85;17.70;;;-0.30;99.90;;;;;;6238730;23;20070;-78
2022/12/30 00:07:24;;;;;;;44.53;21.92;;;-0.30;99.90;;;;;;6260699;23;20057;-82
2022/12/30 00:09:57;;;;;;;43.13;19.83;;;-0.20;99.90;;;;;;6253162;23;20005;-78
2022/12/30 00:35:23;;;;;;;44.95;18.95;;;0.20;99.90;;;;;;6275620;23;20058;-78
2022/12/30 00:37:56;;;;;;;38.70;19.88;;;0.10;99.90;;;;;;6251921;23;20058;-75
2022/12/30 00:40:27;;;;;;;44.53;21.20;;;0.00;99.90;;;;;;6279674;23;20034;-79
2022/12/30 00:43:10;;;;;;;45.92;21.45;;;0.00;99.90;;;;;;6280794;23;20230;-79
2022/12/30 00:45:49;;;;;;;65.43;20.83;;;0.00;99.90;;;;;;6280737;23;20030;-79
2022/12/30 00:56:55;;;;;;;53.25;20.90;;;0.10;99.90;;;;;;6274026;23;20180;-78
2022/12/30 00:59:28;;;;;;;43.70;21.88;;;0.10;99.90;;;;;;6250150;23;20046;-78
2022/12/30 01:02:02;;;;;;;45.13;19.73;;;0.10;99.90;;;;;;6272593;23;20243;-79
2022/12/30 01:04:37;;;;;;;46.70;20.20;;;0.20;99.90;;;;;;6264729;22;20097;-78
2022/12/30 01:07:08;;;;;;;;;;;0.20;99.90;;;;;;6272872;23;20308;-82
2022/12/30 01:09:39;;;;;;;56.05;20.20;;;0.20;99.90;;;;;;6248163;23;19949;-80
2022/12/30 01:12:13;;;;;;;40.95;18.85;;;0.20;99.90;;;;;;6293141;23;20082;-81
2022/12/30 01:14:49;;;;;;;29.10;18.60;;;0.20;99.90;;;;;;6272582;23;20047;-80
2022/12/30 01:17:29;;;;;;;36.55;18.92;;;0.40;99.90;;;;;;6270313;23;20203;-76
2022/12/30 01:20:04;;;;;;;47.05;19.73;;;0.40;99.90;;;;;;6293678;23;20316;-79
2022/12/30 01:22:38;;;;;;;39.50;19.13;;;0.50;99.90;;;;;;6294456;23;20021;-78
2022/12/30 01:25:12;;;;;;;46.85;21.27;;;0.50;99.90;;;;;;6270696;23;20009;-80
2022/12/30 01:27:43;;;;;;;42.65;19.85;;;0.60;99.90;;;;;;6292229;23;20252;-82
2022/12/30 01:30:17;;;;;;;34.25;17.58;;;0.60;99.90;;;;;;6269502;23;20381;-81
2022/12/30 01:32:51;;;;;;;42.63;21.08;;;0.70;99.90;;;;;;6223752;23;20356;-80
2022/12/30 01:35:27;;;;;;;43.45;20.88;;;0.80;99.90;;;;;;6271360;23;20347;-78
2022/12/30 01:37:58;;;;;;;41.75;20.77;;;0.80;99.90;;;;;;6292846;23;20003;-81
2022/12/30 01:40:29;;;;;;;39.63;20.60;;;0.70;99.90;;;;;;6269908;23;19999;-77
2022/12/30 01:43:00;;;;;;;49.80;21.40;;;0.70;99.90;;;;;;6269730;23;20054;-80
2022/12/30 01:45:36;;;;;;;39.83;19.27;;;0.60;99.90;;;;;;6246382;23;20070;-80
2022/12/30 01:48:32;;;;;;;48.55;20.15;;;0.70;99.90;;;;;;6268428;23;20058;-81
2022/12/30 01:51:15;;;;;;;42.40;18.90;;;0.60;99.90;;;;;;6292495;23;20054;-80
2022/12/30 01:53:51;;;;;;;44.67;20.85;;;0.70;99.90;;;;;;6294605;23;20272;-79
2022/12/30 01:56:27;;;;;;;38.72;19.58;;;0.60;99.90;;;;;;6254854;23;20093;-82
2022/12/30 01:59:17;;;;;;;45.08;19.50;;;0.60;99.90;;;;;;6256730;23;20087;-78
2022/12/30 02:01:51;;;;;;;49.97;20.85;;;0.70;99.90;;;;;;6279259;23;20286;-80
2022/12/30 02:04:29;;;;;;;44.03;19.65;;;0.80;99.90;;;;;;6233278;22;20212;-80
2022/12/30 02:07:22;;;;;;;44.15;19.83;;;0.90;99.90;;;;;;6267441;23;20029;-78
2022/12/30 02:10:01;;;;;;;46.72;20.40;;;1.00;99.90;;;;;;6268895;23;20066;-81
2022/12/30 02:12:35;;;;;;;48.25;22.30;;;1.10;99.90;;;;;;6221640;23;20013;-81
2022/12/30 02:15:07;;;;;;;39.42;19.92;;;0.90;99.90;;;;;;6269376;23;20054;-80
2022/12/30 02:17:44;;;;;;;40.10;20.73;;;1.00;99.90;;;;;;6269534;23;20174;-81
2022/12/30 02:20:46;;;;;;;46.00;19.25;;;0.90;99.90;;;;;;6268555;23;20222;-80
2022/12/30 02:23:48;;;;;;;41.83;19.65;;;0.90;99.90;;;;;;6269002;23;20062;-80
2022/12/30 02:26:28;;;;;;;43.47;20.55;;;0.90;99.90;;;;;;6272373;23;20046;-80
2022/12/30 02:29:21;;;;;;;44.88;19.98;;;0.80;99.90;;;;;;6246145;23;20025;-76
2022/12/30 02:32:14;;;;;;;38.25;19.10;;;0.80;99.90;;;;;;6269694;23;20058;-79
2022/12/30 02:34:55;;;;;;;52.42;19.55;;;1.00;99.90;;;;;;6272214;23;20102;-79
2022/12/30 02:37:48;;;;;;;41.97;18.83;;;1.10;99.90;;;;;;6293534;23;20021;-79
2022/12/30 02:40:25;;;;;;;48.13;20.35;;;1.10;99.90;;;;;;6246647;23;20303;-80
2022/12/30 02:46:06;;;;;;;49.58;19.58;;;1.00;99.90;;;;;;6273911;23;20231;-78
2022/12/30 02:48:42;;;;;;;47.25;19.95;;;0.80;99.90;;;;;;6273723;23;20537;-78
2022/12/30 02:54:05;;;;;;;57.00;24.20;;;0.60;99.90;;;;;;6276175;23;20059;-78
2022/12/30 02:56:45;;;;;;;75.60;23.70;;;0.50;99.90;;;;;;6251726;23;20013;-79
2022/12/30 03:05:59;;;;;;;68.97;24.05;;;0.40;99.90;;;;;;6263352;23;20085;-80
2022/12/30 03:08:51;;;;;;;57.05;22.27;;;0.40;99.90;;;;;;6260515;23;20058;-81
2022/12/30 03:11:29;;;;;;;38.25;19.05;;;0.40;99.90;;;;;;6247704;23;20067;-78
2022/12/30 03:14:15;;;;;;;45.45;19.10;;;0.40;99.90;;;;;;6294833;23;20176;-79
2022/12/30 03:17:13;;;;;;;48.45;22.30;;;0.40;99.90;;;;;;6247160;23;19999;-79
2022/12/30 03:19:56;;;;;;;45.45;18.35;;;0.40;99.90;;;;;;6279695;23;20033;-82
2022/12/30 03:28:18;;;;;;;48.75;19.55;;;0.30;99.90;;;;;;6273310;23;20054;-81
2022/12/30 03:31:04;;;;;;;62.25;20.58;;;0.30;99.90;;;;;;6246602;23;20062;-79
2022/12/30 03:33:41;;;;;;;71.55;21.08;;;0.40;99.90;;;;;;6271465;23;20066;-80
2022/12/30 03:36:22;;;;;;;65.03;20.05;;;0.40;99.90;;;;;;6272913;23;20273;-78
2022/12/30 03:39:07;;;;;;;81.03;22.60;;;0.40;99.90;;;;;;6270829;23;20006;-81
2022/12/30 03:41:46;;;;;;;70.88;20.20;;;0.30;99.90;;;;;;6270587;23;20058;-81
2022/12/30 03:44:19;;;;;;;57.65;21.33;;;0.30;99.90;;;;;;6271321;23;20042;-79
2022/12/30 03:46:50;;;;;;;44.83;20.75;;;0.40;99.90;;;;;;6274172;23;20054;-81
2022/12/30 03:49:21;;;;;;;55.75;21.77;;;0.40;99.90;;;;;;6274289;23;20320;-80
2022/12/30 03:51:55;;;;;;;48.58;21.00;;;0.30;99.90;;;;;;6274223;23;20058;-78
2022/12/30 03:54:28;;;;;;;51.70;21.73;;;0.40;99.90;;;;;;6273519;23;20081;-78
2022/12/30 03:57:00;;;;;;;46.97;21.90;;;0.40;99.90;;;;;;6247058;23;20002;-79
2022/12/30 03:59:31;;;;;;;72.25;21.65;;;0.30;99.90;;;;;;6272702;23;20360;-79
2022/12/30 04:02:02;;;;;;;43.35;21.33;;;0.30;99.90;;;;;;6246248;23;20340;-78
2022/12/30 04:04:36;;;;;;;43.20;19.00;;;0.30;99.90;;;;;;6263539;22;20122;-78
2022/12/30 04:07:08;;;;;;;41.58;19.70;;;0.50;99.90;;;;;;6272324;23;20335;-78
2022/12/30 04:09:42;;;;;;;49.53;21.20;;;0.50;99.90;;;;;;6248969;23;20271;-79
2022/12/30 04:12:13;;;;;;;;;;;0.60;99.90;;;;;;6295497;23;20002;-80
2022/12/30 04:14:49;;;;;;;60.95;20.58;;;0.60;99.90;;;;;;6269946;23;20183;-78
2022/12/30 04:17:24;;;;;;;46.25;21.10;;;0.60;99.90;;;;;;6270879;23;20006;-77
2022/12/30 04:19:59;;;;;;;46.22;23.13;;;0.60;99.90;;;;;;6293424;23;20062;-79
2022/12/30 04:22:32;;;;;;;50.85;20.80;;;0.70;99.90;;;;;;6246000;23;20336;-80
2022/12/30 04:25:09;;;;;;;46.05;21.25;;;0.70;99.90;;;;;;6270188;23;20051;-77
2022/12/30 04:27:42;;;;;;;52.05;22.45;;;0.80;99.90;;;;;;6247368;23;20062;-79
2022/12/30 04:30:14;;;;;;;;;;;0.90;99.90;;;;;;6272502;23;20054;-77
2022/12/30 04:32:45;;;;;;;35.95;18.52;;;0.90;99.90;;;;;;6271554;23;19949;-75
2022/12/30 04:35:19;;;;;;;47.00;20.25;;;0.80;99.90;;;;;;6271021;23;20227;-77
2022/12/30 04:37:53;;;;;;;48.15;21.30;;;0.90;99.90;;;;;;6271416;23;20042;-75
2022/12/30 04:40:24;;;;;;;34.05;18.30;;;0.90;99.90;;;;;;6271059;23;20335;-76
2022/12/30 04:42:55;;;;;;;35.90;18.50;;;0.90;99.90;;;;;;6270082;23;20055;-77
2022/12/30 04:45:29;;;;;;;38.33;19.63;;;1.00;99.90;;;;;;6271820;23;20038;-78
2022/12/30 04:48:01;;;;;;;43.67;21.13;;;1.10;99.90;;;;;;6295158;23;20003;-78
2022/12/30 04:50:32;;;;;;;39.83;19.38;;;1.10;99.90;;;;;;6269765;23;20043;-79
2022/12/30 04:53:03;;;;;;;42.75;19.52;;;1.10;99.90;;;;;;6271860;23;20050;-78
2022/12/30 04:55:35;;;;;;;34.47;18.27;;;1.10;99.90;;;;;;6270033;23;20029;-78
2022/12/30 04:58:06;;;;;;;34.47;18.52;;;1.20;99.90;;;;;;6245838;23;20005;-81
2022/12/30 05:00:41;;;;;;;38.22;19.75;;;1.20;99.90;;;;;;6269314;23;20308;-77
2022/12/30 05:03:18;;;;;;;33.38;16.90;;;1.20;99.90;;;;;;6268424;23;20239;-79
2022/12/30 05:05:51;;;;;;;35.40;17.40;;;1.20;99.90;;;;;;6285430;22;20086;-79
2022/12/30 05:08:28;;;;;;;42.58;19.83;;;0.90;99.90;;;;;;6246500;23;19999;-78
2022/12/30 05:10:59;;;;;;;39.25;20.42;;;0.80;99.90;;;;;;6269695;23;20067;-79
2022/12/30 05:13:30;;;;;;;39.95;19.92;;;0.90;99.90;;;;;;6269544;23;20006;-82
2022/12/30 05:16:04;;;;;;;39.38;17.17;;;0.90;99.90;;;;;;6272343;23;20062;-80
2022/12/30 05:18:35;;;;;;;40.20;18.33;;;1.00;99.90;;;;;;6303316;23;20307;-79
2022/12/30 05:21:09;;;;;;;38.10;17.95;;;1.10;99.90;;;;;;6270831;23;20412;-82
2022/12/30 05:26:35;;;;;;;39.63;18.58;;;1.10;99.90;;;;;;6269862;23;20055;-80
2022/12/30 05:29:09;;;;;;;35.45;18.20;;;1.00;99.90;;;;;;6245303;23;20063;-80
2022/12/30 05:31:43;;;;;;;35.38;18.75;;;1.00;99.90;;;;;;6293263;23;20002;-80
2022/12/30 05:34:19;;;;;;;32.38;17.40;;;0.90;99.90;;;;;;6245492;23;19994;-79
2022/12/30 05:36:54;;;;;;;34.63;18.55;;;0.90;99.90;;;;;;6245168;23;19999;-80
2022/12/30 05:39:27;;;;;;;31.55;16.65;;;0.90;99.90;;;;;;6220444;23;20348;-80
2022/12/30 05:42:01;;;;;;;29.10;15.95;;;0.90;99.90;;;;;;6244569;23;20062;-80
2022/12/30 05:44:35;;;;;;;30.52;16.77;;;1.10;99.90;;;;;;6269117;23;20003;-78
2022/12/30 05:47:09;;;;;;;40.58;20.50;;;1.20;99.90;;;;;;6246484;23;20009;-79
2022/12/30 05:49:40;;;;;;;37.78;16.90;;;1.30;99.90;;;;;;6270243;23;20203;-79
2022/12/30 05:52:11;;;;;;;27.25;15.00;;;1.40;99.90;;;;;;6269736;23;20050;-80
2022/12/30 05:54:43;;;;;;;38.17;18.70;;;1.40;99.90;;;;;;6269457;23;20062;-80
2022/12/30 05:57:22;;;;;;;32.03;16.65;;;1.40;99.90;;;;;;6245202;23;19998;-78
2022/12/30 05:59:54;;;;;;;40.38;18.75;;;1.50;99.90;;;;;;6246748;23;20059;-81
2022/12/30 06:02:26;;;;;;;32.72;16.30;;;1.50;99.90;;;;;;6244724;23;20066;-78
2022/12/30 06:04:57;;;;;;;38.28;18.63;;;1.50;99.90;;;;;;6231959;23;20013;-80
2022/12/30 06:07:28;;;;;;;37.83;18.50;;;1.50;99.90;;;;;;6269891;23;20054;-80
2022/12/30 06:10:00;;;;;;;35.13;17.35;;;1.50;99.90;;;;;;6271528;23;20260;-80
2022/12/30 06:12:34;;;;;;;36.40;19.00;;;1.50;99.90;;;;;;6293841;23;20009;-78
2022/12/30 06:15:09;;;;;;;33.78;17.15;;;1.50;99.90;;;;;;6271379;23;20058;-79
2022/12/30 06:17:42;;;;;;;29.00;15.85;;;1.50;99.90;;;;;;6244990;23;20013;-79
2022/12/30 06:20:14;;;;;;;28.97;14.97;;;1.50;99.90;;;;;;6269180;23;20066;-79
2022/12/30 06:22:48;;;;;;;27.50;14.88;;;1.60;99.90;;;;;;6270525;23;20062;-81
2022/12/30 06:25:20;;;;;;;26.75;14.32;;;1.60;99.90;;;;;;6292378;23;19995;-80
2022/12/30 06:27:51;;;;;;;29.98;15.60;;;1.70;99.90;;;;;;6270118;23;20025;-81
2022/12/30 06:30:22;;;;;;;30.27;17.58;;;1.70;99.90;;;;;;6271019;23;20061;-81
2022/12/30 06:33:01;;;;;;;28.88;14.55;;;1.60;99.90;;;;;;6269538;23;19999;-80
2022/12/30 06:35:35;;;;;;;33.22;17.20;;;1.60;99.90;;;;;;6246336;23;20051;-79
2022/12/30 06:38:06;;;;;;;32.78;16.55;;;1.50;99.90;;;;;;6244347;23;19999;-78
2022/12/30 06:40:37;;;;;;;34.13;17.38;;;1.60;99.90;;;;;;6221572;23;20062;-79
2022/12/30 06:43:13;;;;;;;32.45;15.63;;;1.60;99.90;;;;;;6269201;23;20176;-80
2022/12/30 06:45:49;;;;;;;30.85;17.80;;;1.50;99.90;;;;;;6222713;23;20052;-80
2022/12/30 06:48:23;;;;;;;34.75;16.70;;;1.60;99.90;;;;;;6246883;23;20013;-79
2022/12/30 06:51:01;;;;;;;44.42;19.50;;;1.60;99.90;;;;;;6270625;23;20327;-79
2022/12/30 06:53:39;;;;;;;37.25;17.20;;;1.50;99.90;;;;;;6270607;23;20464;-80
2022/12/30 06:56:15;;;;;;;44.28;19.23;;;1.40;99.90;;;;;;6220059;23;20059;-80
2022/12/30 06:58:47;;;;;;;49.60;20.85;;;1.30;99.90;;;;;;6245350;23;20025;-78
2022/12/30 07:01:20;;;;;;;56.63;21.60;;;1.30;99.90;;;;;;6269684;23;20007;-79
2022/12/30 07:03:55;;;;;;;48.10;20.42;;;1.30;99.90;;;;;;6245152;23;20009;-78
2022/12/30 07:06:28;;;;;;;44.25;21.35;;;1.20;99.90;;;;;;6256342;23;20377;-78
2022/12/30 07:09:09;;;;;;;55.40;20.27;;;1.20;99.90;;;;;;6269136;23;20017;-78
2022/12/30 07:11:46;;;;;;;54.03;21.75;;;1.20;99.90;;;;;;6280636;23;20339;-80
2022/12/30 07:14:18;;;;;;;43.75;19.65;;;1.10;99.90;;;;;;6244731;23;20054;-80
2022/12/30 07:16:49;;;;;;;39.28;20.33;;;1.10;99.90;;;;;;6244573;23;20005;-80
2022/12/30 07:19:25;;;;;;;47.30;20.70;;;1.10;99.90;;;;;;6268977;23;20015;-79
2022/12/30 07:22:01;;;;;;;44.08;22.63;;;1.10;99.90;;;;;;6279944;23;20239;-78
2022/12/30 07:24:32;;;;;;;43.67;20.95;;;1.20;99.90;;;;;;6270332;23;20239;-80
2022/12/30 07:27:04;;;;;;;48.97;21.48;;;1.30;99.90;;;;;;6244180;23;20213;-80
2022/12/30 07:29:43;;;;;;;48.50;21.80;;;1.50;99.90;;;;;;6268793;23;19995;-79
2022/12/30 07:32:16;;;;;;;41.90;20.27;;;1.60;99.90;;;;;;6269993;23;20070;-79
2022/12/30 07:34:51;;;;;;;43.78;21.05;;;1.70;99.90;;;;;;6269779;23;20515;-82
2022/12/30 07:37:24;;;;;;;44.15;20.63;;;1.80;99.90;;;;;;6244490;23;20366;-81
2022/12/30 07:39:58;;;;;;;40.60;21.25;;;1.90;99.90;;;;;;6244986;23;20066;-80
2022/12/30 07:42:29;;;;;;;44.50;20.58;;;2.00;99.90;;;;;;6290838;23;20009;-81
2022/12/30 07:45:04;;;;;;;43.28;22.48;;;2.10;99.90;;;;;;6290466;23;20005;-79
2022/12/30 07:47:38;;;;;;;47.08;23.35;;;2.20;99.90;;;;;;6266824;23;20316;-79
2022/12/30 07:50:15;;;;;;;44.47;22.13;;;2.30;99.90;;;;;;6266701;23;20325;-82
2022/12/30 07:52:46;;;;;;;38.13;20.58;;;2.40;99.90;;;;;;6243549;23;20231;-79
2022/12/30 07:55:21;;;;;;;39.60;21.25;;;2.60;99.90;;;;;;6269330;23;20417;-80
2022/12/30 07:57:52;;;;;;;38.10;20.10;;;2.70;99.90;;;;;;6243123;23;20166;-80
2022/12/30 08:00:24;;;;;;;35.83;17.83;;;2.60;99.90;;;;;;6220445;23;20133;-78
2022/12/30 08:02:59;;;;;;;39.88;19.70;;;2.60;99.90;;;;;;6268459;23;20070;-82
2022/12/30 08:05:31;;;;;;;42.85;20.40;;;2.60;99.90;;;;;;6311678;23;20115;-82
2022/12/30 08:08:06;;;;;;;40.60;21.30;;;2.70;99.90;;;;;;6308189;23;20007;-82
2022/12/30 08:10:40;;;;;;;47.10;22.10;;;2.70;99.90;;;;;;6242972;23;20062;-82
2022/12/30 08:13:16;;;;;;;41.40;19.63;;;2.80;99.90;;;;;;6267892;23;20281;-83
2022/12/30 08:15:47;;;;;;;47.53;20.90;;;2.70;99.90;;;;;;6291834;23;20481;-81
2022/12/30 08:18:21;;;;;;;46.60;21.73;;;2.80;99.90;;;;;;6267033;23;20332;-79
2022/12/30 08:21:00;;;;;;;45.97;22.00;;;2.80;99.90;;;;;;6268829;23;20010;-81
2022/12/30 08:23:32;;;;;;;42.22;21.65;;;3.00;99.90;;;;;;6269064;23;20059;-81
2022/12/30 08:26:04;;;;;;;42.28;20.67;;;3.10;99.90;;;;;;6269295;23;20058;-80
2022/12/30 08:28:36;;;;;;;38.35;20.08;;;3.30;99.90;;;;;;6291162;23;20314;-80
2022/12/30 08:31:14;;;;;;;37.67;19.88;;;3.50;99.90;;;;;;6266219;23;20240;-80
2022/12/30 08:33:47;;;;;;;41.03;21.55;;;3.70;99.90;;;;;;6267020;23;20522;-80
2022/12/30 08:36:27;;;;;;;38.38;21.08;;;4.00;99.90;;;;;;6267903;23;20042;-78
2022/12/30 08:39:03;;;;;;;39.63;20.17;;;4.10;99.90;;;;;;6291710;23;20013;-82
2022/12/30 08:41:38;;;;;;;35.95;19.88;;;4.40;99.90;;;;;;6242623;23;20082;-79
2022/12/30 08:44:12;;;;;;;34.63;18.48;;;4.70;99.90;;;;;;6269716;23;20054;-78
2022/12/30 08:46:45;;;;;;;;;;;4.80;99.90;;;;;;6268374;23;20007;-80
2022/12/30 08:49:21;;;;;;;33.70;18.10;;;4.80;99.90;;;;;;6266576;23;20200;-83
2022/12/30 08:51:58;;;;;;;39.67;19.88;;;4.90;99.90;;;;;;6266810;23;20003;-81
2022/12/30 08:54:30;;;;;;;36.45;18.80;;;4.90;99.90;;;;;;6291297;23;19995;-80
2022/12/30 08:57:01;;;;;;;35.65;19.75;;;5.00;99.90;;;;;;6290486;23;20014;-81
2022/12/30 08:59:35;;;;;;;35.95;19.42;;;4.80;99.90;;;;;;6243353;23;20062;-81
2022/12/30 09:02:10;;;;;;;32.25;18.92;;;4.60;99.90;;;;;;6245230;23;20003;-83
2022/12/30 09:04:48;;;;;;;35.35;18.77;;;4.70;99.90;;;;;;6259503;23;20006;-82
2022/12/30 09:07:19;;;;;;;36.80;18.08;;;4.60;99.90;;;;;;6244099;23;20196;-80
2022/12/30 09:09:50;;;;;;;35.45;18.48;;;4.60;99.90;;;;;;6244016;23;20009;-80
2022/12/30 09:12:23;;;;;;;39.35;19.00;;;4.40;99.90;;;;;;6267593;23;19999;-78
2022/12/30 09:14:57;;;;;;;30.50;17.77;;;4.30;99.90;;;;;;6268281;23;20438;-84
2022/12/30 09:17:30;;;;;;;36.63;19.02;;;4.20;99.90;;;;;;6221512;23;20021;-81
2022/12/30 09:20:03;;;;;;;36.77;18.40;;;4.20;99.90;;;;;;6292661;23;20351;-80
2022/12/30 09:22:36;;;;;;;30.50;16.92;;;4.10;99.90;;;;;;6291691;23;20450;-76
2022/12/30 09:25:10;;;;;;;31.60;17.70;;;4.10;99.90;;;;;;6268470;23;20017;-83
2022/12/30 09:27:41;;;;;;;31.63;17.17;;;4.20;99.90;;;;;;6293291;23;20220;-78
2022/12/30 09:30:17;;;;;;;35.97;19.08;;;4.20;99.90;;;;;;6268421;23;20066;-80
2022/12/30 09:32:49;;;;;;;38.22;20.33;;;4.30;99.90;;;;;;6267982;23;20440;-84
2022/12/30 09:35:23;;;;;;;30.95;18.98;;;4.30;99.90;;;;;;6243512;23;20001;-79
2022/12/30 09:37:57;;;;;;;35.88;19.58;;;4.20;99.90;;;;;;6241986;23;20206;-79
2022/12/30 09:40:39;;;;;;;37.28;19.38;;;4.30;99.90;;;;;;6269227;23;20323;-80
2022/12/30 09:43:32;;;;;;;36.10;18.85;;;4.40;99.90;;;;;;6243877;23;20003;-79
2022/12/30 09:46:30;;;;;;;38.85;19.65;;;4.30;99.90;;;;;;6270708;23;20378;-79
2022/12/30 09:49:25;;;;;;;41.25;19.40;;;4.30;99.90;;;;;;6270462;23;20066;-77
2022/12/30 09:52:18;;;;;;;35.20;19.45;;;4.50;99.90;;;;;;6249705;23;19995;-82
2022/12/30 09:55:02;;;;;;;38.38;18.98;;;4.80;99.90;;;;;;6269456;23;20286;-79
2022/12/30 09:57:38;;;;;;;34.97;18.88;;;5.40;99.90;;;;;;6243096;23;20223;-78
2022/12/30 10:00:20;;;;;;;34.15;17.83;;;5.80;99.90;;;;;;6244017;23;20067;-80
2022/12/30 10:03:10;;;;;;;33.90;18.38;;;5.90;99.90;;;;;;6291447;23;20286;-80
2022/12/30 10:06:08;;;;;;;40.45;20.20;;;6.40;99.90;;;;;;6326687;23;20011;-83
2022/12/30 10:08:45;;;;;;;38.28;18.33;;;7.20;99.90;;;;;;6279668;23;20453;-84
2022/12/30 10:11:28;;;;;;;33.33;19.45;;;7.60;99.90;;;;;;6278743;23;20047;-83
2022/12/30 10:14:18;;;;;;;31.92;17.35;;;8.20;68.00;;;;;;6277330;23;20063;-79
2022/12/30 10:16:59;;;;;;;33.10;18.17;;;8.70;10.50;;;;;;6291451;23;20013;-81
2022/12/30 10:19:49;;;;;;;29.05;16.73;;;9.30;1.00;;;;;;6244776;23;20323;-77
2022/12/30 10:22:41;;;;;;;30.77;16.33;;;9.80;1.00;;;;;;6242975;23;20327;-84
2022/12/30 10:25:38;;;;;;;32.97;16.60;;;10.10;99.90;;;;;;6280376;23;20051;-87
2022/12/30 10:28:20;;;;;;;30.83;15.82;;;10.50;1.00;;;;;;6262398;23;20059;-84
2022/12/30 10:30:54;;;;;;;28.50;16.80;;;10.80;1.00;;;;;;6282846;23;20043;-84
2022/12/30 10:33:29;;;;;;;26.40;14.80;;;11.20;1.00;;;;;;6280247;23;20075;-85
2022/12/30 10:36:18;;;;;;;29.35;15.85;;;11.20;99.90;;;;;;6284365;23;20075;-82
2022/12/30 10:39:05;;;;;;;24.92;14.23;;;11.40;99.90;;;;;;6260664;23;20267;-86
2022/12/30 10:41:41;;;;;;;22.80;14.32;;;11.40;1.00;;;;;;6257062;23;20060;-83
2022/12/30 10:44:30;;;;;;;23.83;14.27;;;12.10;1.00;;;;;;6246092;23;20070;-81
2022/12/30 10:47:24;;;;;;;22.77;12.50;;;13.00;99.90;;;;;;6297158;23;20067;-78
2022/12/30 10:50:15;;;;;;;24.63;13.82;;;13.10;1.00;;;;;;6296606;23;20145;-80
2022/12/30 10:52:50;;;;;;;23.35;13.38;;;13.20;1.00;;;;;;6271552;23;20003;-81
2022/12/30 10:55:28;;;;;;;22.20;13.68;;;13.30;99.90;;;;;;6293995;23;20410;-80
2022/12/30 10:58:08;;;;;;;22.05;12.57;;;13.80;1.00;;;;;;6294123;23;20159;-76
2022/12/30 11:00:45;;;;;;;23.65;12.85;;;14.10;1.00;;;;;;6246504;23;20054;-80
2022/12/30 11:03:34;;;;;;;19.20;12.82;;;14.50;99.90;;;;;;6293935;23;20013;-79
2022/12/30 11:06:26;;;;;;;18.80;13.20;;;14.50;99.90;;;;;;6278734;22;20078;-78
2022/12/30 11:09:13;;;;;;;20.08;12.75;;;14.50;92.50;;;;;;6269787;23;20442;-78
2022/12/30 11:15:06;;;;;;;21.63;13.02;;;13.50;99.90;;;;;;6270907;23;20097;-79
2022/12/30 11:18:01;;;;;;;18.80;12.70;;;13.20;1.00;;;;;;6247476;23;20006;-77
2022/12/30 11:20:34;;;;;;;19.88;12.68;;;13.10;99.90;;;;;;6269757;23;20005;-79
2022/12/30 11:23:21;;;;;;;19.80;12.55;;;13.70;1.00;;;;;;6269926;23;19999;-77
2022/12/30 11:25:52;;;;;;;17.45;12.00;;;14.20;1.00;;;;;;6243944;23;20061;-78
2022/12/30 11:28:31;;;;;;;18.92;12.43;;;14.30;99.90;;;;;;6269556;23;20304;-79
2022/12/30 11:31:14;;;;;;;19.23;12.23;;;13.10;99.90;;;;;;6247681;23;20058;-82
2022/12/30 11:33:48;;;;;;;17.15;11.38;;;13.00;99.90;;;;;;6271580;23;20310;-81
2022/12/30 11:36:32;;;;;;;19.38;10.98;;;13.00;1.00;;;;;;6270803;23;20054;-79
2022/12/30 11:39:08;;;;;;;20.27;12.17;;;12.60;1.00;;;;;;6270301;23;20311;-82
2022/12/30 11:42:01;;;;;;;19.50;12.77;;;11.60;1.00;;;;;;6267903;23;20207;-82
2022/12/30 11:44:33;;;;;;;16.25;10.52;;;11.80;1.00;;;;;;6244758;23;20403;-83
2022/12/30 11:47:09;;;;;;;21.77;12.73;;;12.30;99.90;;;;;;6247203;23;20059;-82
2022/12/30 11:49:57;;;;;;;18.83;12.48;;;12.70;99.90;;;;;;6269620;23;20062;-82
2022/12/30 11:52:31;;;;;;;19.38;12.73;;;12.90;35.30;;;;;;6266957;23;20058;-79
2022/12/30 11:55:04;;;;;;;;;;;13.10;99.90;;;;;;6246249;23;20054;-84
2022/12/30 11:57:43;;;;;;;17.52;12.45;;;12.70;99.90;;;;;;6269997;23;19957;-79
2022/12/30 12:00:20;;;;;;;21.20;11.98;;;12.60;99.90;;;;;;6269503;23;20006;-84
2022/12/30 12:03:15;;;;;;;21.00;12.93;;;12.80;1.00;;;;;;6267875;23;20195;-84
2022/12/30 12:05:46;;;;;;;17.58;11.45;;;12.70;99.90;;;;;;6284226;22;20090;-77
2022/12/30 12:08:26;;;;;;;17.30;12.25;;;13.50;99.90;;;;;;6245180;23;20062;-77
2022/12/30 12:11:10;;;;;;;20.00;12.07;;;12.80;78.20;;;;;;6271059;23;20009;-81
2022/12/30 12:14:26;;;;;;;17.40;12.23;;;12.00;99.90;;;;;;6270316;23;20155;-79
2022/12/30 12:17:27;;;;;;;16.92;11.65;;;12.30;1.00;;;;;;6308019;23;20056;-78
2022/12/30 12:20:06;;;;;;;21.13;11.57;;;12.80;99.90;;;;;;6331646;23;20237;-77
2022/12/30 12:22:58;;;;;;;17.30;11.68;;;12.10;99.90;;;;;;6282725;23;20012;-78
2022/12/30 12:25:39;;;;;;;18.13;11.05;;;11.50;1.00;;;;;;6305803;23;19994;-80
2022/12/30 12:28:15;;;;;;;16.67;11.90;;;12.10;1.00;;;;;;6283537;23;20004;-80
2022/12/30 12:31:23;;;;;;;16.88;10.65;;;12.70;1.00;;;;;;6284440;23;20002;-79
2022/12/30 12:34:34;;;;;;;16.70;10.95;;;12.90;99.90;;;;;;6281454;23;20004;-80
2022/12/30 12:37:22;;;;;;;17.45;10.85;;;12.10;99.90;;;;;;6283652;23;20050;-81
2022/12/30 12:40:30;;;;;;;16.10;11.35;;;12.00;1.00;;;;;;6309449;23;20005;-84
2022/12/30 12:43:16;;;;;;;19.70;11.82;;;12.20;1.00;;;;;;6333002;23;20242;-83
2022/12/30 12:45:56;;;;;;;21.25;11.77;;;11.40;1.00;;;;;;6335060;23;20342;-82
2022/12/30 12:49:11;;;;;;;19.27;11.65;;;11.70;1.00;;;;;;6252743;23;20062;-81
2022/12/30 12:52:01;;;;;;;20.25;12.63;;;12.70;99.90;;;;;;6244275;23;20249;-79
2022/12/30 12:55:15;;;;;;;17.00;11.57;;;13.10;99.90;;;;;;6246049;23;20340;-78
2022/12/30 12:58:05;;;;;;;17.25;11.30;;;13.40;1.00;;;;;;6244369;23;20007;-80
2022/12/30 13:01:01;;;;;;;18.60;11.40;;;13.70;1.00;;;;;;6244330;23;20175;-80
2022/12/30 13:03:36;;;;;;;19.40;11.98;;;13.30;1.00;;;;;;6271172;23;20071;-80
2022/12/30 13:06:32;;;;;;;16.58;11.23;;;12.80;99.90;;;;;;6278819;22;20082;-79
2022/12/30 13:09:36;;;;;;;21.02;12.88;;;13.80;1.00;;;;;;6272766;23;20062;-83
2022/12/30 13:12:24;;;;;;;18.50;11.55;;;13.60;1.00;;;;;;6278985;23;20001;-81
2022/12/30 13:15:12;;;;;;;19.73;12.05;;;13.50;1.00;;;;;;6244120;23;20003;-79
2022/12/30 13:17:47;;;;;;;16.52;10.80;;;13.70;1.00;;;;;;6243902;23;20066;-81
2022/12/30 13:20:41;;;;;;;19.88;12.35;;;12.80;1.00;;;;;;6267259;23;20066;-78
2022/12/30 13:23:19;;;;;;;21.00;12.50;;;11.90;99.90;;;;;;6265554;23;20066;-80
2022/12/30 13:26:06;;;;;;;16.90;10.95;;;12.20;99.90;;;;;;6272224;23;20086;-84
2022/12/30 13:28:46;;;;;;;17.17;10.93;;;12.70;1.00;;;;;;6248422;23;20050;-82
2022/12/30 13:31:48;;;;;;;20.05;11.55;;;12.30;1.00;;;;;;6270559;23;20061;-82
2022/12/30 13:34:28;;;;;;;19.30;11.70;;;12.10;99.90;;;;;;6246425;23;20065;-83
2022/12/30 13:37:16;;;;;;;15.68;11.38;;;11.50;1.00;;;;;;6246937;23;20009;-79
2022/12/30 13:39:58;;;;;;;16.95;11.00;;;11.00;1.00;;;;;;6244350;23;20195;-75
2022/12/30 13:42:51;;;;;;;24.23;11.63;;;10.00;99.90;;;;;;6244388;23;20003;-81
2022/12/30 13:45:27;;;;;;;18.52;11.20;;;9.50;1.00;;;;;;6267185;23;20017;-82
2022/12/30 13:48:21;;;;;;;19.48;11.30;;;9.40;1.00;;;;;;6291255;23;20025;-78
2022/12/30 13:51:05;;;;;;;18.55;12.32;;;8.60;1.00;;;;;;6268412;23;19995;-78
2022/12/30 13:53:43;;;;;;;25.30;13.82;;;8.40;14.70;;;;;;6268013;23;20076;-78
2022/12/30 13:56:24;;;;;;;27.02;14.85;;;8.10;94.70;;;;;;6267575;23;19990;-78
2022/12/30 13:59:01;;;;;;;29.10;15.75;;;7.90;99.90;;;;;;6293247;23;20188;-80
2022/12/30 14:01:35;;;;;;;34.00;16.60;;;7.70;99.90;;;;;;6249250;23;20072;-81
2022/12/30 14:04:09;;;;;;;;;;;7.40;99.90;;;;;;6292998;23;20062;-81
2022/12/30 14:06:53;;;;;;;32.50;16.70;;;7.20;99.90;;;;;;6230404;23;19961;-76
2022/12/30 14:09:30;;;;;;;32.33;16.98;;;6.90;99.90;;;;;;6244966;23;20062;-78
2022/12/30 14:12:04;;;;;;;30.27;16.13;;;6.60;99.90;;;;;;6270055;23;20062;-79
2022/12/30 14:14:42;;;;;;;36.55;17.27;;;6.50;99.90;;;;;;6244330;23;20006;-79
2022/12/30 14:17:31;;;;;;;33.97;17.20;;;6.30;99.90;;;;;;6269433;23;20003;-78
2022/12/30 14:20:28;;;;;;;34.83;17.67;;;6.10;99.90;;;;;;6269680;23;20007;-83
2022/12/30 14:23:02;;;;;;;31.90;16.50;;;5.90;99.90;;;;;;6293820;23;20137;-79
2022/12/30 14:25:40;;;;;;;35.80;19.45;;;5.80;99.90;;;;;;6270817;23;20011;-78
2022/12/30 14:28:27;;;;;;;33.65;17.60;;;5.60;99.90;;;;;;6292795;23;20061;-78
2022/12/30 14:31:00;;;;;;;27.92;16.73;;;5.40;99.90;;;;;;6293510;23;20025;-80
2022/12/30 14:33:38;;;;;;;31.45;17.38;;;5.30;99.90;;;;;;6269678;23;20360;-81